Toledo

Airport
ICAO code: 
KTOL
Summary
ICAO Region: 
NAM
Territory: 
Location: 
Toledo, Ohio,
Coordinates: 
Aerial View: 
41° 35' 10.46" N, 83° 48' 15.522" W
Metar
Observation
KTOL 020852Z 21012KT 7SM CLR 09/06 A2968 RMK AO2 SLP052 T00940056 58023
Station
Toledo, Toledo Express Airport
Date/Time
2021-12-02 08:52:00
Wind direction
210°
Wind speed
12 kts
Lowest cloud amount
n/a
Temperature
9.4°C
Dew point
5.6°C
Humidity
77%
Weather condition
n/a

Description

Toledo Express Airport is a joint civil-military airport located 16 km west of the city of Toledo in the extreme Western portion of Lucas County, Ohio, United States. In addition to serving commercial passenger, cargo and general aviation aircraft the airport is also a base for the Ohio Air National Guard.

Climatology

Runways

Designator Length Width Surface Rops
16/34 1707 46 ASP Yes/Yes
7/25 3231 46 ASP Yes/Yes
Airport map: 
Aerial View: 

SKYbrary Partners:

Safety knowledge contributed by: